createdAt,value
2019-04-04T00:00:14.360Z,17.43
2019-04-04T00:03:21.760Z,19.03
2019-04-04T00:06:38.493Z,16.83
2019-04-04T00:09:45.736Z,15.27
2019-04-04T00:12:51.384Z,17.57
2019-04-04T00:16:08.078Z,15.17
2019-04-04T00:19:24.914Z,18.50
2019-04-04T00:22:41.894Z,16.50
2019-04-04T00:25:47.703Z,19.90
2019-04-04T00:29:04.155Z,20.10
2019-04-04T00:32:21.619Z,16.97
2019-04-04T00:35:31.068Z,21.83
2019-04-04T00:38:38.626Z,16.93
2019-04-04T00:41:55.199Z,17.30
2019-04-04T00:45:02.602Z,8.67
2019-04-04T00:48:19.339Z,13.77
2019-04-04T00:51:38.745Z,11.30
2019-04-04T00:55:00.369Z,13.93
2019-04-04T00:58:07.617Z,9.53
2019-04-04T01:01:26.892Z,13.87
2019-04-04T01:04:42.744Z,11.83
2019-04-04T01:07:50.048Z,13.47
2019-04-04T01:11:06.887Z,11.17
2019-04-04T01:14:15.047Z,11.60
2019-04-04T01:17:22.787Z,14.10
2019-04-04T01:20:30.123Z,12.27
2019-04-04T01:23:47.005Z,9.77
2019-04-04T01:27:04.126Z,10.87
2019-04-04T01:30:13.007Z,13.30
2019-04-04T01:33:20.464Z,13.10
2019-04-04T01:36:28.013Z,8.17
2019-04-04T01:39:34.201Z,13.30
2019-04-04T01:42:51.201Z,10.20
2019-04-04T01:46:07.592Z,14.87
2019-04-04T01:49:14.908Z,10.97
2019-04-04T01:52:31.741Z,12.77
2019-04-04T01:55:48.391Z,7.87
2019-04-04T01:58:55.795Z,8.77
2019-04-04T02:02:12.421Z,9.03
2019-04-04T02:05:19.686Z,8.73
2019-04-04T02:08:26.922Z,5.20
2019-04-04T02:11:43.632Z,8.90
2019-04-04T02:15:00.575Z,10.63
2019-04-04T02:18:17.233Z,10.10
2019-04-04T02:21:33.989Z,11.60
2019-04-04T02:24:41.576Z,6.67
2019-04-04T02:27:58.280Z,6.83
2019-04-04T02:31:21.046Z,7.27
2019-04-04T02:34:28.669Z,8.67
2019-04-04T02:37:36.183Z,7.57
2019-04-04T02:40:52.888Z,7.73
2019-04-04T02:44:09.689Z,9.60
2019-04-04T02:47:18.096Z,8.77
2019-04-04T02:50:25.491Z,7.77
2019-04-04T02:53:32.757Z,8.30
2019-04-04T02:56:40.034Z,8.30
2019-04-04T02:59:47.320Z,7.27
2019-04-04T03:02:54.461Z,6.70
2019-04-04T03:06:11.378Z,10.07
2019-04-04T03:09:28.083Z,14.30
2019-04-04T03:12:35.336Z,7.23
2019-04-04T03:15:52.066Z,10.53
2019-04-04T03:19:11.052Z,6.93
2019-04-04T03:22:28.299Z,9.13
2019-04-04T03:25:35.635Z,9.50
2019-04-04T03:28:43.009Z,8.33
2019-04-04T03:31:50.224Z,12.87
2019-04-04T03:34:57.544Z,10.47
2019-04-04T03:38:04.863Z,12.73
2019-04-04T03:41:21.661Z,13.63
2019-04-04T03:44:38.340Z,12.57
2019-04-04T03:47:45.567Z,9.83
2019-04-04T03:50:56.581Z,7.87
2019-04-04T03:54:22.233Z,13.07
2019-04-04T03:57:26.987Z,10.63
2019-04-04T04:00:34.310Z,9.63
2019-04-04T04:03:41.595Z,14.10
2019-04-04T04:06:49.129Z,12.20
2019-04-04T04:09:59.329Z,11.63
2019-04-04T04:13:05.477Z,12.77
2019-04-04T04:16:12.843Z,12.63
2019-04-04T04:19:31.304Z,11.40
2019-04-04T04:22:50.439Z,13.93
2019-04-04T04:26:09.376Z,13.70
2019-04-04T04:29:32.627Z,13.03
2019-04-04T04:32:49.169Z,15.47
2019-04-04T04:36:09.539Z,10.30
2019-04-04T04:39:24.515Z,14.50
2019-04-04T04:42:31.836Z,10.63
2019-04-04T04:45:37.379Z,12.43
2019-04-04T04:48:54.163Z,10.00
2019-04-04T04:52:12.260Z,9.07
2019-04-04T04:55:29.317Z,8.37
2019-04-04T04:58:36.635Z,13.10
2019-04-04T05:01:53.352Z,10.00
2019-04-04T05:05:10.229Z,11.43
2019-04-04T05:08:17.452Z,14.27
2019-04-04T05:11:34.090Z,12.53
2019-04-04T05:14:40.376Z,12.70
2019-04-04T05:17:47.930Z,12.50
2019-04-04T05:20:57.436Z,10.93
2019-04-04T05:24:04.262Z,12.37
2019-04-04T05:27:11.667Z,10.10
2019-04-04T05:30:20.407Z,11.13
2019-04-04T05:33:29.115Z,10.93
2019-04-04T05:36:46.135Z,9.00
2019-04-04T05:39:55.323Z,11.63
2019-04-04T05:43:14.761Z,9.33
2019-04-04T05:46:30.137Z,8.60
2019-04-04T05:49:38.223Z,11.90
2019-04-04T05:52:46.146Z,12.93
2019-04-04T05:56:06.137Z,12.40
2019-04-04T05:59:23.667Z,11.37
2019-04-04T06:02:41.093Z,10.33
2019-04-04T06:06:01.052Z,9.87
2019-04-04T06:09:16.545Z,10.93
2019-04-04T06:12:25.018Z,13.77
2019-04-04T06:15:42.089Z,10.10
2019-04-04T06:18:58.822Z,13.70
2019-04-04T06:22:06.221Z,12.43
2019-04-04T06:25:22.908Z,12.93
2019-04-04T06:28:39.632Z,8.73
2019-04-04T06:31:46.923Z,8.13
2019-04-04T06:35:03.749Z,7.27
2019-04-04T06:38:22.978Z,10.10
2019-04-04T06:41:39.005Z,10.37
2019-04-04T06:44:46.264Z,11.27
2019-04-04T06:48:02.970Z,9.43
2019-04-04T06:51:12.025Z,6.57
2019-04-04T06:54:28.653Z,13.23
2019-04-04T06:57:36.595Z,11.63
2019-04-04T07:00:48.583Z,10.10
2019-04-04T07:04:03.000Z,6.27
2019-04-04T07:07:19.712Z,6.27
2019-04-04T07:10:27.030Z,11.00
2019-04-04T07:13:42.256Z,6.50
2019-04-04T07:16:41.667Z,7.80
2019-04-04T07:19:47.302Z,6.57
2019-04-04T07:23:03.806Z,8.17
2019-04-04T07:26:20.591Z,7.37
2019-04-04T07:29:37.411Z,6.60
2019-04-04T07:32:54.105Z,7.07
2019-04-04T07:36:01.395Z,5.97
2019-04-04T07:39:18.107Z,4.73
2019-04-04T07:42:25.442Z,5.33
2019-04-04T07:45:32.671Z,5.27
2019-04-04T07:48:51.631Z,11.00
2019-04-04T07:52:07.771Z,5.50
2019-04-04T07:55:24.504Z,3.93
2019-04-04T07:58:41.297Z,4.97
2019-04-04T08:01:51.325Z,5.33
2019-04-04T08:05:07.342Z,9.83
2019-04-04T08:08:23.781Z,6.00
2019-04-04T08:11:30.918Z,4.20
2019-04-04T08:14:39.237Z,8.10
2019-04-04T08:17:46.540Z,5.10
2019-04-04T08:20:53.834Z,5.27
2019-04-04T08:24:01.096Z,4.67
2019-04-04T08:27:08.386Z,5.17
2019-04-04T08:30:15.816Z,4.67
2019-04-04T08:33:23.059Z,5.13
2019-04-04T08:36:39.842Z,9.47
2019-04-04T08:39:47.119Z,5.90
2019-04-04T08:43:03.909Z,5.53
2019-04-04T08:46:20.621Z,8.73
2019-04-04T08:49:28.006Z,5.60
2019-04-04T08:52:45.107Z,5.27
2019-04-04T08:56:01.783Z,3.87
2019-04-04T08:59:18.559Z,4.23
2019-04-04T09:02:25.774Z,6.60
2019-04-04T09:05:42.655Z,5.43
2019-04-04T09:08:49.915Z,6.23
2019-04-04T09:11:57.099Z,6.07
2019-04-04T09:15:15.415Z,5.03
2019-04-04T09:18:22.555Z,9.23
2019-04-04T09:21:29.836Z,5.87
2019-04-04T09:24:46.588Z,9.63
2019-04-04T09:27:53.869Z,7.60
2019-04-04T09:31:10.560Z,3.93
2019-04-04T09:34:17.794Z,4.63
2019-04-04T09:37:25.023Z,5.00
2019-04-04T09:40:32.149Z,9.43
2019-04-04T09:43:39.633Z,4.90
2019-04-04T09:47:05.277Z,7.43
2019-04-04T09:50:14.917Z,4.17
2019-04-04T09:53:31.460Z,3.33
2019-04-04T09:56:38.683Z,6.87
2019-04-04T09:59:44.952Z,4.77
2019-04-04T10:02:52.168Z,3.37
2019-04-04T10:05:59.392Z,3.13
2019-04-04T10:09:15.720Z,5.13
2019-04-04T10:12:25.830Z,6.00
2019-04-04T10:15:42.691Z,3.57
2019-04-04T10:18:49.479Z,3.70
2019-04-04T10:21:56.956Z,6.40
2019-04-04T10:25:04.509Z,4.20
2019-04-04T10:28:23.344Z,5.37
2019-04-04T10:31:39.344Z,6.47
2019-04-04T10:34:46.623Z,2.50
2019-04-04T10:37:53.864Z,5.10
2019-04-04T10:41:10.601Z,3.33
2019-04-04T10:44:27.401Z,3.27
2019-04-04T10:47:44.276Z,4.50
2019-04-04T10:50:51.527Z,3.60
2019-04-04T10:54:08.313Z,3.07
2019-04-04T10:57:15.524Z,3.57
2019-04-04T11:00:22.843Z,3.50
2019-04-04T11:03:39.433Z,3.57
2019-04-04T11:06:56.298Z,3.93
2019-04-04T11:10:13.110Z,3.03
2019-04-04T11:13:33.846Z,5.27
2019-04-04T11:16:48.313Z,3.47
2019-04-04T11:20:05.390Z,4.23
2019-04-04T11:23:22.125Z,4.50
2019-04-04T11:26:29.446Z,5.10
2019-04-04T11:29:46.204Z,4.27
2019-04-04T11:33:02.938Z,5.10
2019-04-04T11:36:10.194Z,4.20
2019-04-04T11:39:17.328Z,4.90
2019-04-04T11:42:24.563Z,4.10
2019-04-04T11:45:31.900Z,5.60
2019-04-04T11:48:48.601Z,4.20
2019-04-04T11:51:55.737Z,6.87
2019-04-04T11:55:03.351Z,6.37
2019-04-04T11:58:19.980Z,7.83
2019-04-04T12:01:38.561Z,6.77
2019-04-04T12:04:57.762Z,10.13
2019-04-04T12:08:14.125Z,5.77
2019-04-04T12:11:22.823Z,11.17
2019-04-04T12:14:30.293Z,5.77
2019-04-04T12:17:46.901Z,7.00
2019-04-04T12:20:54.292Z,9.37
2019-04-04T12:24:10.997Z,6.50
2019-04-04T12:27:27.827Z,6.63
2019-04-04T12:30:44.541Z,8.47
2019-04-04T12:33:52.135Z,9.17
2019-04-04T12:37:08.584Z,9.03
2019-04-04T12:40:20.778Z,6.03
2019-04-04T12:43:34.769Z,11.50
2019-04-04T12:46:42.571Z,9.63
2019-04-04T12:49:50.035Z,7.37
2019-04-04T12:52:57.629Z,9.27
2019-04-04T12:56:14.156Z,8.73
2019-04-04T12:59:21.426Z,9.40
2019-04-04T13:02:28.561Z,11.17
2019-04-04T13:05:35.806Z,10.40
2019-04-04T13:08:43.112Z,8.50
2019-04-04T13:11:59.858Z,10.17
2019-04-04T13:15:16.837Z,6.97
2019-04-04T13:18:33.498Z,10.03
2019-04-04T13:21:50.489Z,8.43
2019-04-04T13:25:07.822Z,7.33
2019-04-04T13:28:15.033Z,10.00
2019-04-04T13:31:22.341Z,10.07
2019-04-04T13:34:29.487Z,9.43
2019-04-04T13:37:36.832Z,12.67
2019-04-04T13:40:45.725Z,9.97
2019-04-04T13:43:53.720Z,10.07
2019-04-04T13:47:02.751Z,13.73
2019-04-04T13:50:12.271Z,10.80
2019-04-04T13:53:28.129Z,13.53
2019-04-04T13:56:44.826Z,11.80
2019-04-04T13:59:51.985Z,12.33
2019-04-04T14:02:59.317Z,11.13
2019-04-04T14:06:16.065Z,9.33
2019-04-04T14:09:23.404Z,12.90
2019-04-04T14:12:40.051Z,11.83
2019-04-04T14:15:47.284Z,16.50
2019-04-04T14:19:04.281Z,11.03
2019-04-04T14:22:20.999Z,13.53
2019-04-04T14:25:37.733Z,11.97
2019-04-04T14:28:45.046Z,12.17
2019-04-04T14:32:01.835Z,12.57
2019-04-04T14:35:24.581Z,14.30
2019-04-04T14:38:31.741Z,10.70
2019-04-04T14:41:38.953Z,10.73
2019-04-04T14:44:46.317Z,12.33
2019-04-04T14:48:03.306Z,12.50
2019-04-04T14:51:19.959Z,13.57
2019-04-04T14:54:39.374Z,19.10
2019-04-04T14:57:58.705Z,13.60
2019-04-04T15:01:05.618Z,14.83
2019-04-04T15:04:12.776Z,11.47
2019-04-04T15:07:20.148Z,13.37
2019-04-04T15:10:27.393Z,13.03
2019-04-04T15:13:34.639Z,15.27
2019-04-04T15:16:42.030Z,14.33
2019-04-04T15:19:58.692Z,15.63
2019-04-04T15:23:06.018Z,14.43
2019-04-04T15:26:22.711Z,13.77
2019-04-04T15:29:29.877Z,16.30
2019-04-04T15:32:37.063Z,13.20
2019-04-04T15:35:44.261Z,13.00
2019-04-04T15:38:51.413Z,15.60
2019-04-04T15:41:59.030Z,14.00
2019-04-04T15:45:15.614Z,13.70
2019-04-04T15:48:22.950Z,16.03
2019-04-04T15:51:39.714Z,13.67
2019-04-04T15:54:56.431Z,16.47
2019-04-04T15:58:03.676Z,15.43
2019-04-04T16:01:20.516Z,15.97
2019-04-04T16:04:37.294Z,18.60
2019-04-04T16:07:54.212Z,18.53
2019-04-04T16:11:10.921Z,25.40
2019-04-04T16:14:27.652Z,17.57
2019-04-04T16:17:34.860Z,15.40
2019-04-04T16:20:42.209Z,20.33
2019-04-04T16:23:58.948Z,18.87
2019-04-04T16:27:15.787Z,15.07
2019-04-04T16:30:23.100Z,16.70
2019-04-04T16:33:39.693Z,20.17
2019-04-04T16:36:46.988Z,24.53
2019-04-04T16:40:09.308Z,16.37
2019-04-04T16:43:22.600Z,18.77
2019-04-04T16:46:29.910Z,14.13
2019-04-04T16:49:46.651Z,18.30
2019-04-04T16:53:03.363Z,27.57
2019-04-04T16:56:10.631Z,18.50
2019-04-04T16:59:17.781Z,19.00
2019-04-04T17:02:34.836Z,15.67
2019-04-04T17:05:51.465Z,21.47
2019-04-04T17:09:08.655Z,14.20
2019-04-04T17:12:25.302Z,15.87
2019-04-04T17:15:41.874Z,16.70
2019-04-04T17:18:49.358Z,15.90
2019-04-04T17:22:06.356Z,18.33
2019-04-04T17:25:23.527Z,14.63
2019-04-04T17:28:40.025Z,16.30
2019-04-04T17:31:57.195Z,17.83
2019-04-04T17:35:06.363Z,18.57
2019-04-04T17:38:13.908Z,16.20
2019-04-04T17:41:21.837Z,16.47
2019-04-04T17:44:39.242Z,19.30
2019-04-04T17:47:56.144Z,17.13
2019-04-04T17:51:04.178Z,15.60
2019-04-04T17:54:12.058Z,17.07
2019-04-04T17:57:29.508Z,17.57
2019-04-04T18:00:37.070Z,17.30
2019-04-04T18:03:44.471Z,14.63
2019-04-04T18:06:52.193Z,16.83
2019-04-04T18:09:59.681Z,14.60
2019-04-04T18:13:07.385Z,15.43
2019-04-04T18:16:14.983Z,11.83
2019-04-04T18:19:32.010Z,8.73
2019-04-04T18:22:48.696Z,13.03
2019-04-04T18:26:05.973Z,12.20
2019-04-04T18:29:13.781Z,8.70
2019-04-04T18:32:21.483Z,7.43
2019-04-04T18:35:38.359Z,6.33
2019-04-04T18:38:55.210Z,7.40
2019-04-04T18:42:11.904Z,5.87
2019-04-04T18:45:28.799Z,3.53
2019-04-04T18:48:45.310Z,5.20
2019-04-04T18:52:01.913Z,2.40
2019-04-04T18:55:20.286Z,5.33
2019-04-04T18:58:37.335Z,8.67
2019-04-04T19:01:54.104Z,8.00
2019-04-04T19:05:11.264Z,4.50
2019-04-04T19:08:27.806Z,5.03
2019-04-04T19:11:44.566Z,4.20
2019-04-04T19:15:01.324Z,5.37
2019-04-04T19:18:18.041Z,5.73
2019-04-04T19:21:35.130Z,6.37
2019-04-04T19:24:51.754Z,6.43
2019-04-04T19:28:08.423Z,5.10
2019-04-04T19:31:15.666Z,5.00
2019-04-04T19:34:32.462Z,4.77
2019-04-04T19:37:39.772Z,6.57
2019-04-04T19:41:02.436Z,3.00
2019-04-04T19:44:19.245Z,7.43
2019-04-04T19:47:26.523Z,6.20
2019-04-04T19:50:43.181Z,4.70
2019-04-04T19:53:59.912Z,4.07
2019-04-04T19:57:17.125Z,4.97
2019-04-04T20:00:33.532Z,5.70
2019-04-04T20:03:40.839Z,6.33
2019-04-04T20:06:57.644Z,4.60
2019-04-04T20:10:14.455Z,3.37
2019-04-04T20:13:31.543Z,5.87
2019-04-04T20:16:38.880Z,8.23
2019-04-04T20:19:46.000Z,5.00
2019-04-04T20:22:53.230Z,4.90
2019-04-04T20:26:09.472Z,4.70
2019-04-04T20:29:16.727Z,3.13
2019-04-04T20:32:24.032Z,8.23
2019-04-04T20:35:40.795Z,10.10
2019-04-04T20:38:47.991Z,6.10
2019-04-04T20:42:04.822Z,7.03
2019-04-04T20:45:21.584Z,5.77
2019-04-04T20:48:38.305Z,8.60
2019-04-04T20:51:55.247Z,6.97
2019-04-04T20:55:11.960Z,4.37
2019-04-04T20:58:19.094Z,5.53
2019-04-04T21:01:26.367Z,7.23
2019-04-04T21:04:33.504Z,7.17
2019-04-04T21:07:40.639Z,7.77
2019-04-04T21:10:47.938Z,7.60
2019-04-04T21:13:56.250Z,9.57
2019-04-04T21:17:17.382Z,7.20
2019-04-04T21:20:34.151Z,7.83
2019-04-04T21:23:51.080Z,9.40
2019-04-04T21:27:07.721Z,12.17
2019-04-04T21:30:14.913Z,10.63
2019-04-04T21:33:31.624Z,7.57
2019-04-04T21:36:38.807Z,7.13
2019-04-04T21:39:46.100Z,8.40
2019-04-04T21:42:53.405Z,6.83
2019-04-04T21:46:10.139Z,10.07
2019-04-04T21:49:26.934Z,10.20
2019-04-04T21:52:49.655Z,9.97
2019-04-04T21:56:06.499Z,6.07
2019-04-04T21:59:13.840Z,11.07
2019-04-04T22:02:30.585Z,9.40
2019-04-04T22:05:47.319Z,10.90
2019-04-04T22:08:54.551Z,8.37
2019-04-04T22:12:01.689Z,6.47
2019-04-04T22:15:10.074Z,9.23
2019-04-04T22:18:17.383Z,9.30
2019-04-04T22:21:24.683Z,8.60
2019-04-04T22:24:31.912Z,9.03
2019-04-04T22:27:39.134Z,7.40
2019-04-04T22:30:46.475Z,6.67
2019-04-04T22:33:53.600Z,6.67
2019-04-04T22:36:59.127Z,11.03
2019-04-04T22:40:06.536Z,9.27
2019-04-04T22:43:14.713Z,10.70
2019-04-04T22:46:21.843Z,10.70
2019-04-04T22:49:29.036Z,13.60
2019-04-04T22:52:36.307Z,13.33
2019-04-04T22:55:43.873Z,12.53
2019-04-04T22:58:51.194Z,12.30
2019-04-04T23:01:58.537Z,16.43
2019-04-04T23:05:06.747Z,14.20
2019-04-04T23:08:15.184Z,15.17
2019-04-04T23:11:22.538Z,13.63
2019-04-04T23:14:29.693Z,14.47
2019-04-04T23:17:36.906Z,13.73
2019-04-04T23:20:44.140Z,15.53
2019-04-04T23:23:51.662Z,17.50
2019-04-04T23:26:58.788Z,14.93
2019-04-04T23:30:07.724Z,18.50
2019-04-04T23:33:15.052Z,13.97
2019-04-04T23:36:34.373Z,18.07
2019-04-04T23:39:40.955Z,18.97
2019-04-04T23:42:48.261Z,20.70
2019-04-04T23:46:05.073Z,17.27
2019-04-04T23:49:21.808Z,17.37
2019-04-04T23:52:28.958Z,16.27
2019-04-04T23:55:36.376Z,21.00
2019-04-04T23:58:52.982Z,26.10
